sensor_id;sensor_type;location;lat;lon;timestamp;temperature;humidity
19000;DHT22;9633;50.980;13.850;2023-07-13T00:00:12;20.40;99.90
19000;DHT22;9633;50.980;13.850;2023-07-13T00:01:48;20.50;99.90
19000;DHT22;9633;50.980;13.850;2023-07-13T00:03:22;20.50;99.90
19000;DHT22;9633;50.980;13.850;2023-07-13T00:04:54;20.50;99.90
19000;DHT22;9633;50.980;13.850;2023-07-13T00:06:29;20.50;99.90
19000;DHT22;9633;50.980;13.850;2023-07-13T00:08:05;20.40;99.90
19000;DHT22;9633;50.980;13.850;2023-07-13T00:09:37;20.40;99.90
19000;DHT22;9633;50.980;13.850;2023-07-13T00:11:10;20.30;99.90
19000;DHT22;9633;50.980;13.850;2023-07-13T00:12:44;20.40;99.90
19000;DHT22;9633;50.980;13.850;2023-07-13T00:14:17;20.40;99.90
19000;DHT22;9633;50.980;13.850;2023-07-13T00:15:49;20.40;99.90
19000;DHT22;9633;50.980;13.850;2023-07-13T00:17:22;20.40;99.90
19000;DHT22;9633;50.980;13.850;2023-07-13T00:18:56;20.40;99.90
19000;DHT22;9633;50.980;13.850;2023-07-13T00:20:28;20.40;99.90
19000;DHT22;9633;50.980;13.850;2023-07-13T00:22:03;20.30;99.90
19000;DHT22;9633;50.980;13.850;2023-07-13T00:23:37;20.30;99.90
19000;DHT22;9633;50.980;13.850;2023-07-13T00:25:11;20.30;99.90
19000;DHT22;9633;50.980;13.850;2023-07-13T00:26:48;20.40;99.90
19000;DHT22;9633;50.980;13.850;2023-07-13T00:28:20;20.60;99.90
19000;DHT22;9633;50.980;13.850;2023-07-13T00:29:53;20.80;98.30
19000;DHT22;9633;50.980;13.850;2023-07-13T00:31:26;21.00;83.40
19000;DHT22;9633;50.980;13.850;2023-07-13T00:32:59;21.10;75.10
19000;DHT22;9633;50.980;13.850;2023-07-13T00:34:48;21.20;76.70
19000;DHT22;9633;50.980;13.850;2023-07-13T00:36:23;21.10;95.70
19000;DHT22;9633;50.980;13.850;2023-07-13T00:37:56;20.90;99.90
19000;DHT22;9633;50.980;13.850;2023-07-13T00:39:29;20.50;99.90
19000;DHT22;9633;50.980;13.850;2023-07-13T00:41:02;20.20;99.90
19000;DHT22;9633;50.980;13.850;2023-07-13T00:42:36;19.60;99.90
19000;DHT22;9633;50.980;13.850;2023-07-13T00:44:12;19.30;99.90
19000;DHT22;9633;50.980;13.850;2023-07-13T00:46:13;18.90;99.90
19000;DHT22;9633;50.980;13.850;2023-07-13T00:47:46;18.40;99.90
19000;DHT22;9633;50.980;13.850;2023-07-13T00:49:22;18.20;99.90
19000;DHT22;9633;50.980;13.850;2023-07-13T00:50:58;18.10;99.90
19000;DHT22;9633;50.980;13.850;2023-07-13T00:52:33;18.10;99.90
19000;DHT22;9633;50.980;13.850;2023-07-13T00:54:12;18.00;99.90
19000;DHT22;9633;50.980;13.850;2023-07-13T00:55:46;17.90;99.90
19000;DHT22;9633;50.980;13.850;2023-07-13T00:57:21;17.70;99.90
19000;DHT22;9633;50.980;13.850;2023-07-13T00:58:55;17.60;99.90
19000;DHT22;9633;50.980;13.850;2023-07-13T01:00:29;17.50;99.90
19000;DHT22;9633;50.980;13.850;2023-07-13T01:02:03;17.50;99.90
19000;DHT22;9633;50.980;13.850;2023-07-13T01:03:37;17.40;99.90
19000;DHT22;9633;50.980;13.850;2023-07-13T01:05:10;17.30;99.90
19000;DHT22;9633;50.980;13.850;2023-07-13T01:06:44;17.30;99.90
19000;DHT22;9633;50.980;13.850;2023-07-13T01:08:19;17.30;99.90
19000;DHT22;9633;50.980;13.850;2023-07-13T01:09:52;17.30;99.90
19000;DHT22;9633;50.980;13.850;2023-07-13T01:11:27;17.20;99.90
19000;DHT22;9633;50.980;13.850;2023-07-13T01:12:59;17.10;99.90
19000;DHT22;9633;50.980;13.850;2023-07-13T01:14:32;17.00;99.90
19000;DHT22;9633;50.980;13.850;2023-07-13T01:16:15;17.00;99.90
19000;DHT22;9633;50.980;13.850;2023-07-13T01:17:50;16.80;99.90
19000;DHT22;9633;50.980;13.850;2023-07-13T01:19:33;16.80;99.90
19000;DHT22;9633;50.980;13.850;2023-07-13T01:21:10;16.70;99.90
19000;DHT22;9633;50.980;13.850;2023-07-13T01:22:44;16.70;99.90
19000;DHT22;9633;50.980;13.850;2023-07-13T01:24:18;16.70;99.90
19000;DHT22;9633;50.980;13.850;2023-07-13T01:25:53;16.70;99.90
19000;DHT22;9633;50.980;13.850;2023-07-13T01:27:27;16.70;99.90
19000;DHT22;9633;50.980;13.850;2023-07-13T01:29:00;16.60;99.90
19000;DHT22;9633;50.980;13.850;2023-07-13T01:30:33;16.60;99.90
19000;DHT22;9633;50.980;13.850;2023-07-13T01:32:08;16.60;99.90
19000;DHT22;9633;50.980;13.850;2023-07-13T01:33:41;16.50;99.90
19000;DHT22;9633;50.980;13.850;2023-07-13T01:35:13;16.50;99.90
19000;DHT22;9633;50.980;13.850;2023-07-13T01:36:50;16.60;99.90
19000;DHT22;9633;50.980;13.850;2023-07-13T01:38:26;16.60;99.90
19000;DHT22;9633;50.980;13.850;2023-07-13T01:39:58;16.60;99.90
19000;DHT22;9633;50.980;13.850;2023-07-13T01:41:32;16.60;99.90
19000;DHT22;9633;50.980;13.850;2023-07-13T01:43:05;16.50;99.90
19000;DHT22;9633;50.980;13.850;2023-07-13T01:44:38;16.50;99.90
19000;DHT22;9633;50.980;13.850;2023-07-13T01:46:12;16.50;99.90
19000;DHT22;9633;50.980;13.850;2023-07-13T01:47:54;16.50;99.90
19000;DHT22;9633;50.980;13.850;2023-07-13T01:49:27;16.40;99.90
19000;DHT22;9633;50.980;13.850;2023-07-13T01:51:00;16.40;99.90
19000;DHT22;9633;50.980;13.850;2023-07-13T01:52:34;16.40;99.90
19000;DHT22;9633;50.980;13.850;2023-07-13T01:54:06;16.40;99.90
19000;DHT22;9633;50.980;13.850;2023-07-13T01:55:40;16.40;99.90
19000;DHT22;9633;50.980;13.850;2023-07-13T01:57:12;16.40;99.90
19000;DHT22;9633;50.980;13.850;2023-07-13T01:58:45;16.40;99.90
19000;DHT22;9633;50.980;13.850;2023-07-13T02:00:18;16.40;99.90
19000;DHT22;9633;50.980;13.850;2023-07-13T02:01:51;16.40;99.90
19000;DHT22;9633;50.980;13.850;2023-07-13T02:03:25;16.40;99.90
19000;DHT22;9633;50.980;13.850;2023-07-13T02:04:58;16.40;99.90
19000;DHT22;9633;50.980;13.850;2023-07-13T02:06:30;16.40;99.90
19000;DHT22;9633;50.980;13.850;2023-07-13T02:08:05;16.50;99.90
19000;DHT22;9633;50.980;13.850;2023-07-13T02:09:37;16.50;99.90
19000;DHT22;9633;50.980;13.850;2023-07-13T02:11:11;16.50;99.90
19000;DHT22;9633;50.980;13.850;2023-07-13T02:12:44;16.50;99.90
19000;DHT22;9633;50.980;13.850;2023-07-13T02:14:17;16.50;99.90
19000;DHT22;9633;50.980;13.850;2023-07-13T02:15:50;16.50;99.90
19000;DHT22;9633;50.980;13.850;2023-07-13T02:17:23;16.60;99.90
19000;DHT22;9633;50.980;13.850;2023-07-13T02:18:56;16.60;99.90
19000;DHT22;9633;50.980;13.850;2023-07-13T02:20:29;16.60;99.90
19000;DHT22;9633;50.980;13.850;2023-07-13T02:22:02;16.70;99.90
19000;DHT22;9633;50.980;13.850;2023-07-13T02:23:36;16.70;99.90
19000;DHT22;9633;50.980;13.850;2023-07-13T02:25:08;16.70;99.90
19000;DHT22;9633;50.980;13.850;2023-07-13T02:26:42;16.70;99.90
19000;DHT22;9633;50.980;13.850;2023-07-13T02:28:14;16.70;99.90
19000;DHT22;9633;50.980;13.850;2023-07-13T02:29:47;16.70;99.90
19000;DHT22;9633;50.980;13.850;2023-07-13T02:31:20;16.60;99.90
19000;DHT22;9633;50.980;13.850;2023-07-13T02:32:53;16.60;99.90
19000;DHT22;9633;50.980;13.850;2023-07-13T02:34:25;16.60;99.90
19000;DHT22;9633;50.980;13.850;2023-07-13T02:35:59;16.60;99.90
19000;DHT22;9633;50.980;13.850;2023-07-13T02:37:31;16.60;99.90
19000;DHT22;9633;50.980;13.850;2023-07-13T02:39:06;16.60;99.90
19000;DHT22;9633;50.980;13.850;2023-07-13T02:40:40;16.70;99.90
19000;DHT22;9633;50.980;13.850;2023-07-13T02:42:13;16.70;99.90
19000;DHT22;9633;50.980;13.850;2023-07-13T02:43:47;16.70;99.90
19000;DHT22;9633;50.980;13.850;2023-07-13T02:45:20;16.70;99.90
19000;DHT22;9633;50.980;13.850;2023-07-13T02:46:53;16.70;99.90
19000;DHT22;9633;50.980;13.850;2023-07-13T02:48:26;16.70;99.90
19000;DHT22;9633;50.980;13.850;2023-07-13T02:49:59;16.70;99.90
19000;DHT22;9633;50.980;13.850;2023-07-13T02:51:32;16.70;99.90
19000;DHT22;9633;50.980;13.850;2023-07-13T02:53:06;16.80;99.90
19000;DHT22;9633;50.980;13.850;2023-07-13T02:54:41;16.70;99.90
19000;DHT22;9633;50.980;13.850;2023-07-13T02:56:15;16.80;99.90
19000;DHT22;9633;50.980;13.850;2023-07-13T02:57:48;16.70;99.90
19000;DHT22;9633;50.980;13.850;2023-07-13T02:59:22;16.70;99.90
19000;DHT22;9633;50.980;13.850;2023-07-13T03:00:56;16.70;99.90
19000;DHT22;9633;50.980;13.850;2023-07-13T03:02:30;16.70;99.90
19000;DHT22;9633;50.980;13.850;2023-07-13T03:04:04;16.70;99.90
19000;DHT22;9633;50.980;13.850;2023-07-13T03:05:42;16.60;99.90
19000;DHT22;9633;50.980;13.850;2023-07-13T03:07:14;16.60;99.90
19000;DHT22;9633;50.980;13.850;2023-07-13T03:08:51;16.60;99.90
19000;DHT22;9633;50.980;13.850;2023-07-13T03:10:24;16.60;99.90
19000;DHT22;9633;50.980;13.850;2023-07-13T03:11:58;16.60;99.90
19000;DHT22;9633;50.980;13.850;2023-07-13T03:13:33;16.60;99.90
19000;DHT22;9633;50.980;13.850;2023-07-13T03:15:09;16.60;99.90
19000;DHT22;9633;50.980;13.850;2023-07-13T03:16:44;16.60;99.90
19000;DHT22;9633;50.980;13.850;2023-07-13T03:18:17;16.60;99.90
19000;DHT22;9633;50.980;13.850;2023-07-13T03:19:50;16.70;99.90
19000;DHT22;9633;50.980;13.850;2023-07-13T03:21:23;16.70;99.90
19000;DHT22;9633;50.980;13.850;2023-07-13T03:22:55;16.70;99.90
19000;DHT22;9633;50.980;13.850;2023-07-13T03:24:29;16.70;99.90
19000;DHT22;9633;50.980;13.850;2023-07-13T03:26:05;16.70;99.90
19000;DHT22;9633;50.980;13.850;2023-07-13T03:27:38;16.70;99.90
19000;DHT22;9633;50.980;13.850;2023-07-13T03:29:13;16.70;99.90
19000;DHT22;9633;50.980;13.850;2023-07-13T03:30:46;16.80;99.90
19000;DHT22;9633;50.980;13.850;2023-07-13T03:32:19;16.80;99.90
19000;DHT22;9633;50.980;13.850;2023-07-13T03:33:52;16.70;99.90
19000;DHT22;9633;50.980;13.850;2023-07-13T03:35:26;16.80;99.90
19000;DHT22;9633;50.980;13.850;2023-07-13T03:36:58;16.70;99.90
19000;DHT22;9633;50.980;13.850;2023-07-13T03:38:32;16.70;99.90
19000;DHT22;9633;50.980;13.850;2023-07-13T03:40:07;16.80;99.90
19000;DHT22;9633;50.980;13.850;2023-07-13T03:41:42;16.80;99.90
19000;DHT22;9633;50.980;13.850;2023-07-13T03:43:15;16.80;99.90
19000;DHT22;9633;50.980;13.850;2023-07-13T03:44:49;16.90;99.90
19000;DHT22;9633;50.980;13.850;2023-07-13T03:46:24;16.90;99.90
19000;DHT22;9633;50.980;13.850;2023-07-13T03:47:58;16.90;99.90
19000;DHT22;9633;50.980;13.850;2023-07-13T03:49:31;16.90;99.90
19000;DHT22;9633;50.980;13.850;2023-07-13T03:51:04;16.90;99.90
19000;DHT22;9633;50.980;13.850;2023-07-13T03:52:36;16.90;99.90
19000;DHT22;9633;50.980;13.850;2023-07-13T03:54:10;17.00;99.90
19000;DHT22;9633;50.980;13.850;2023-07-13T03:55:43;17.00;99.90
19000;DHT22;9633;50.980;13.850;2023-07-13T03:57:18;17.00;99.90
19000;DHT22;9633;50.980;13.850;2023-07-13T03:58:51;17.00;99.90
19000;DHT22;9633;50.980;13.850;2023-07-13T04:00:26;17.00;99.90
19000;DHT22;9633;50.980;13.850;2023-07-13T04:02:00;17.00;99.90
19000;DHT22;9633;50.980;13.850;2023-07-13T04:03:38;16.90;99.90
19000;DHT22;9633;50.980;13.850;2023-07-13T04:05:11;16.90;99.90
19000;DHT22;9633;50.980;13.850;2023-07-13T04:06:44;17.00;99.90
19000;DHT22;9633;50.980;13.850;2023-07-13T04:08:18;16.90;99.90
19000;DHT22;9633;50.980;13.850;2023-07-13T04:09:50;16.90;99.90
19000;DHT22;9633;50.980;13.850;2023-07-13T04:11:26;16.90;99.90
19000;DHT22;9633;50.980;13.850;2023-07-13T04:13:00;17.00;99.90
19000;DHT22;9633;50.980;13.850;2023-07-13T04:14:33;17.00;99.90
19000;DHT22;9633;50.980;13.850;2023-07-13T04:16:07;17.10;99.90
19000;DHT22;9633;50.980;13.850;2023-07-13T04:17:39;17.20;99.90
19000;DHT22;9633;50.980;13.850;2023-07-13T04:19:13;17.30;99.90
19000;DHT22;9633;50.980;13.850;2023-07-13T04:20:46;17.40;99.90
19000;DHT22;9633;50.980;13.850;2023-07-13T04:22:19;17.50;99.90
19000;DHT22;9633;50.980;13.850;2023-07-13T04:23:52;17.60;99.90
19000;DHT22;9633;50.980;13.850;2023-07-13T04:25:25;17.70;99.90
19000;DHT22;9633;50.980;13.850;2023-07-13T04:26:58;17.80;99.90
19000;DHT22;9633;50.980;13.850;2023-07-13T04:28:34;17.90;99.90
19000;DHT22;9633;50.980;13.850;2023-07-13T04:30:07;18.10;99.90
19000;DHT22;9633;50.980;13.850;2023-07-13T04:31:41;18.10;99.90
19000;DHT22;9633;50.980;13.850;2023-07-13T04:33:15;18.10;99.90
19000;DHT22;9633;50.980;13.850;2023-07-13T04:34:48;18.10;99.90
19000;DHT22;9633;50.980;13.850;2023-07-13T04:36:25;18.20;99.90
19000;DHT22;9633;50.980;13.850;2023-07-13T04:37:59;18.20;99.90
19000;DHT22;9633;50.980;13.850;2023-07-13T04:39:31;18.20;99.90
19000;DHT22;9633;50.980;13.850;2023-07-13T04:41:08;18.20;99.90
19000;DHT22;9633;50.980;13.850;2023-07-13T04:42:41;18.20;99.90
19000;DHT22;9633;50.980;13.850;2023-07-13T04:44:15;18.30;99.90
19000;DHT22;9633;50.980;13.850;2023-07-13T04:45:49;18.30;99.90
19000;DHT22;9633;50.980;13.850;2023-07-13T04:47:22;18.40;99.90
19000;DHT22;9633;50.980;13.850;2023-07-13T04:48:55;18.40;99.90
19000;DHT22;9633;50.980;13.850;2023-07-13T04:50:28;18.50;99.90
19000;DHT22;9633;50.980;13.850;2023-07-13T04:52:02;18.60;99.90
19000;DHT22;9633;50.980;13.850;2023-07-13T04:53:34;18.60;99.90
19000;DHT22;9633;50.980;13.850;2023-07-13T04:55:08;18.70;99.90
19000;DHT22;9633;50.980;13.850;2023-07-13T04:56:41;18.80;99.90
19000;DHT22;9633;50.980;13.850;2023-07-13T04:58:14;18.80;99.90
19000;DHT22;9633;50.980;13.850;2023-07-13T04:59:48;18.80;99.90
19000;DHT22;9633;50.980;13.850;2023-07-13T05:01:21;18.60;99.90
19000;DHT22;9633;50.980;13.850;2023-07-13T05:02:55;18.60;99.90
19000;DHT22;9633;50.980;13.850;2023-07-13T05:04:28;18.60;99.90
19000;DHT22;9633;50.980;13.850;2023-07-13T05:06:03;18.50;99.90
19000;DHT22;9633;50.980;13.850;2023-07-13T05:07:37;18.60;99.90
19000;DHT22;9633;50.980;13.850;2023-07-13T05:09:09;18.60;99.90
19000;DHT22;9633;50.980;13.850;2023-07-13T05:10:42;18.60;99.90
19000;DHT22;9633;50.980;13.850;2023-07-13T05:12:15;18.70;99.90
19000;DHT22;9633;50.980;13.850;2023-07-13T05:13:48;18.70;99.90
19000;DHT22;9633;50.980;13.850;2023-07-13T05:15:22;18.70;99.90
19000;DHT22;9633;50.980;13.850;2023-07-13T05:16:55;18.80;99.90
19000;DHT22;9633;50.980;13.850;2023-07-13T05:18:29;18.80;99.90
19000;DHT22;9633;50.980;13.850;2023-07-13T05:20:03;19.00;99.90
19000;DHT22;9633;50.980;13.850;2023-07-13T05:21:35;19.10;99.90
19000;DHT22;9633;50.980;13.850;2023-07-13T05:23:09;19.20;99.90
19000;DHT22;9633;50.980;13.850;2023-07-13T05:24:41;19.20;99.90
19000;DHT22;9633;50.980;13.850;2023-07-13T05:26:14;19.40;99.90
19000;DHT22;9633;50.980;13.850;2023-07-13T05:27:47;19.50;99.90
19000;DHT22;9633;50.980;13.850;2023-07-13T05:29:20;19.50;99.90
19000;DHT22;9633;50.980;13.850;2023-07-13T05:30:55;19.60;99.90
19000;DHT22;9633;50.980;13.850;2023-07-13T05:32:28;19.70;99.90
19000;DHT22;9633;50.980;13.850;2023-07-13T05:34:01;19.80;99.90
19000;DHT22;9633;50.980;13.850;2023-07-13T05:35:33;19.90;99.90
19000;DHT22;9633;50.980;13.850;2023-07-13T05:37:07;19.90;99.90
19000;DHT22;9633;50.980;13.850;2023-07-13T05:38:41;20.00;99.90
19000;DHT22;9633;50.980;13.850;2023-07-13T05:40:13;20.10;99.90
19000;DHT22;9633;50.980;13.850;2023-07-13T05:41:46;20.10;99.90
19000;DHT22;9633;50.980;13.850;2023-07-13T05:43:19;20.20;99.90
19000;DHT22;9633;50.980;13.850;2023-07-13T05:44:52;20.20;99.90
19000;DHT22;9633;50.980;13.850;2023-07-13T05:46:26;20.20;99.90
19000;DHT22;9633;50.980;13.850;2023-07-13T05:48:00;20.20;99.90
19000;DHT22;9633;50.980;13.850;2023-07-13T05:49:32;20.30;99.90
19000;DHT22;9633;50.980;13.850;2023-07-13T05:51:05;20.20;99.90
19000;DHT22;9633;50.980;13.850;2023-07-13T05:52:38;20.30;99.90
19000;DHT22;9633;50.980;13.850;2023-07-13T05:54:12;20.30;99.90
19000;DHT22;9633;50.980;13.850;2023-07-13T05:55:45;20.50;99.90
19000;DHT22;9633;50.980;13.850;2023-07-13T05:57:19;20.80;99.90
19000;DHT22;9633;50.980;13.850;2023-07-13T05:58:52;20.80;99.90
19000;DHT22;9633;50.980;13.850;2023-07-13T06:00:26;20.70;99.90
19000;DHT22;9633;50.980;13.850;2023-07-13T06:02:00;21.00;99.90
19000;DHT22;9633;50.980;13.850;2023-07-13T06:03:33;21.70;99.90
19000;DHT22;9633;50.980;13.850;2023-07-13T06:05:06;22.50;99.90
19000;DHT22;9633;50.980;13.850;2023-07-13T06:06:39;23.60;99.90
19000;DHT22;9633;50.980;13.850;2023-07-13T06:08:12;24.00;99.90
19000;DHT22;9633;50.980;13.850;2023-07-13T06:09:44;24.40;99.90
19000;DHT22;9633;50.980;13.850;2023-07-13T06:11:20;24.10;99.90
19000;DHT22;9633;50.980;13.850;2023-07-13T06:12:52;24.10;99.90
19000;DHT22;9633;50.980;13.850;2023-07-13T06:14:26;23.80;99.90
19000;DHT22;9633;50.980;13.850;2023-07-13T06:15:58;23.90;99.90
19000;DHT22;9633;50.980;13.850;2023-07-13T06:17:32;23.80;99.90
19000;DHT22;9633;50.980;13.850;2023-07-13T06:19:06;23.80;99.90
19000;DHT22;9633;50.980;13.850;2023-07-13T06:20:38;23.90;99.90
19000;DHT22;9633;50.980;13.850;2023-07-13T06:22:11;24.10;99.90
19000;DHT22;9633;50.980;13.850;2023-07-13T06:23:43;24.60;99.90
19000;DHT22;9633;50.980;13.850;2023-07-13T06:25:17;24.70;99.90
19000;DHT22;9633;50.980;13.850;2023-07-13T06:26:49;24.70;99.90
19000;DHT22;9633;50.980;13.850;2023-07-13T06:28:22;24.80;99.90
19000;DHT22;9633;50.980;13.850;2023-07-13T06:29:54;24.80;99.90
19000;DHT22;9633;50.980;13.850;2023-07-13T06:31:28;24.50;99.90
19000;DHT22;9633;50.980;13.850;2023-07-13T06:33:01;24.60;99.90
19000;DHT22;9633;50.980;13.850;2023-07-13T06:34:34;24.50;99.90
19000;DHT22;9633;50.980;13.850;2023-07-13T06:36:08;24.40;99.90
19000;DHT22;9633;50.980;13.850;2023-07-13T06:37:41;25.30;99.90
19000;DHT22;9633;50.980;13.850;2023-07-13T06:39:14;24.90;99.30
19000;DHT22;9633;50.980;13.850;2023-07-13T06:40:46;25.30;99.90
19000;DHT22;9633;50.980;13.850;2023-07-13T06:42:20;26.30;98.80
19000;DHT22;9633;50.980;13.850;2023-07-13T06:43:53;27.30;76.40
19000;DHT22;9633;50.980;13.850;2023-07-13T06:45:25;27.70;70.10
19000;DHT22;9633;50.980;13.850;2023-07-13T06:46:58;27.00;65.60
19000;DHT22;9633;50.980;13.850;2023-07-13T06:48:33;26.40;51.10
19000;DHT22;9633;50.980;13.850;2023-07-13T06:50:06;26.10;49.40
19000;DHT22;9633;50.980;13.850;2023-07-13T06:51:39;24.60;96.50
19000;DHT22;9633;50.980;13.850;2023-07-13T06:53:13;24.10;99.90
19000;DHT22;9633;50.980;13.850;2023-07-13T06:54:46;24.40;99.90
19000;DHT22;9633;50.980;13.850;2023-07-13T06:56:19;24.60;99.90
19000;DHT22;9633;50.980;13.850;2023-07-13T06:57:51;25.00;99.90
19000;DHT22;9633;50.980;13.850;2023-07-13T06:59:25;25.30;82.30
19000;DHT22;9633;50.980;13.850;2023-07-13T07:00:58;24.70;99.90
19000;DHT22;9633;50.980;13.850;2023-07-13T07:02:30;25.20;95.90
19000;DHT22;9633;50.980;13.850;2023-07-13T07:04:05;25.00;90.40
19000;DHT22;9633;50.980;13.850;2023-07-13T07:05:38;25.10;93.00
19000;DHT22;9633;50.980;13.850;2023-07-13T07:07:11;25.30;93.70
19000;DHT22;9633;50.980;13.850;2023-07-13T07:08:44;25.40;70.90
19000;DHT22;9633;50.980;13.850;2023-07-13T07:10:17;25.50;71.60
19000;DHT22;9633;50.980;13.850;2023-07-13T07:11:51;25.00;71.00
19000;DHT22;9633;50.980;13.850;2023-07-13T07:13:35;24.90;99.90
19000;DHT22;9633;50.980;13.850;2023-07-13T07:15:09;24.00;99.90
19000;DHT22;9633;50.980;13.850;2023-07-13T07:16:41;23.70;99.90
19000;DHT22;9633;50.980;13.850;2023-07-13T07:18:14;23.20;99.90
19000;DHT22;9633;50.980;13.850;2023-07-13T07:19:48;23.20;99.90
19000;DHT22;9633;50.980;13.850;2023-07-13T07:21:21;23.40;99.90
19000;DHT22;9633;50.980;13.850;2023-07-13T07:22:55;23.40;99.90
19000;DHT22;9633;50.980;13.850;2023-07-13T07:24:28;23.10;99.90
19000;DHT22;9633;50.980;13.850;2023-07-13T07:26:00;22.80;99.90
19000;DHT22;9633;50.980;13.850;2023-07-13T07:27:34;23.00;99.90
19000;DHT22;9633;50.980;13.850;2023-07-13T07:29:09;23.30;99.90
19000;DHT22;9633;50.980;13.850;2023-07-13T07:30:47;23.80;99.90
19000;DHT22;9633;50.980;13.850;2023-07-13T07:32:22;24.20;99.90
19000;DHT22;9633;50.980;13.850;2023-07-13T07:33:58;25.20;89.20
19000;DHT22;9633;50.980;13.850;2023-07-13T07:35:33;26.00;62.50
19000;DHT22;9633;50.980;13.850;2023-07-13T07:37:14;27.20;69.10
19000;DHT22;9633;50.980;13.850;2023-07-13T07:38:49;27.20;87.00
19000;DHT22;9633;50.980;13.850;2023-07-13T07:40:22;26.80;90.90
19000;DHT22;9633;50.980;13.850;2023-07-13T07:41:57;25.30;92.20
19000;DHT22;9633;50.980;13.850;2023-07-13T07:43:30;24.40;49.10
19000;DHT22;9633;50.980;13.850;2023-07-13T07:45:04;23.90;54.70
19000;DHT22;9633;50.980;13.850;2023-07-13T07:46:39;23.50;60.50
19000;DHT22;9633;50.980;13.850;2023-07-13T07:48:13;23.30;92.50
19000;DHT22;9633;50.980;13.850;2023-07-13T07:49:46;23.60;67.90
19000;DHT22;9633;50.980;13.850;2023-07-13T07:51:20;24.30;64.60
19000;DHT22;9633;50.980;13.850;2023-07-13T07:52:53;25.50;51.00
19000;DHT22;9633;50.980;13.850;2023-07-13T07:54:28;27.10;47.20
19000;DHT22;9633;50.980;13.850;2023-07-13T07:56:20;28.20;67.30
19000;DHT22;9633;50.980;13.850;2023-07-13T07:57:56;29.40;74.90
19000;DHT22;9633;50.980;13.850;2023-07-13T07:59:31;30.30;84.30
19000;DHT22;9633;50.980;13.850;2023-07-13T08:01:07;30.60;86.50
19000;DHT22;9633;50.980;13.850;2023-07-13T08:02:44;31.40;92.20
19000;DHT22;9633;50.980;13.850;2023-07-13T08:04:20;31.40;92.10
19000;DHT22;9633;50.980;13.850;2023-07-13T08:05:55;30.60;93.20
19000;DHT22;9633;50.980;13.850;2023-07-13T08:07:49;30.40;94.50
19000;DHT22;9633;50.980;13.850;2023-07-13T08:09:22;30.40;94.30
19000;DHT22;9633;50.980;13.850;2023-07-13T08:10:55;30.00;94.30
19000;DHT22;9633;50.980;13.850;2023-07-13T08:12:34;29.40;94.80
19000;DHT22;9633;50.980;13.850;2023-07-13T08:14:10;28.30;93.60
19000;DHT22;9633;50.980;13.850;2023-07-13T08:15:42;27.70;93.10
19000;DHT22;9633;50.980;13.850;2023-07-13T08:17:15;27.50;92.30
19000;DHT22;9633;50.980;13.850;2023-07-13T08:18:47;26.30;91.20
19000;DHT22;9633;50.980;13.850;2023-07-13T08:20:20;25.90;91.30
19000;DHT22;9633;50.980;13.850;2023-07-13T08:21:53;26.50;82.50
19000;DHT22;9633;50.980;13.850;2023-07-13T08:23:27;25.70;79.90
19000;DHT22;9633;50.980;13.850;2023-07-13T08:25:01;25.30;79.50
19000;DHT22;9633;50.980;13.850;2023-07-13T08:26:34;25.60;78.10
19000;DHT22;9633;50.980;13.850;2023-07-13T08:28:06;25.80;76.40
19000;DHT22;9633;50.980;13.850;2023-07-13T08:29:40;25.30;75.00
19000;DHT22;9633;50.980;13.850;2023-07-13T08:31:12;25.60;76.30
19000;DHT22;9633;50.980;13.850;2023-07-13T08:32:46;26.70;76.90
19000;DHT22;9633;50.980;13.850;2023-07-13T08:34:19;27.80;80.60
19000;DHT22;9633;50.980;13.850;2023-07-13T08:35:54;28.50;83.00
19000;DHT22;9633;50.980;13.850;2023-07-13T08:37:26;28.50;88.50
19000;DHT22;9633;50.980;13.850;2023-07-13T08:39:01;28.70;85.60
19000;DHT22;9633;50.980;13.850;2023-07-13T08:40:34;27.70;84.70
19000;DHT22;9633;50.980;13.850;2023-07-13T08:42:12;27.20;88.00
19000;DHT22;9633;50.980;13.850;2023-07-13T08:43:49;27.40;87.60
19000;DHT22;9633;50.980;13.850;2023-07-13T08:45:30;28.10;86.10
19000;DHT22;9633;50.980;13.850;2023-07-13T08:47:04;28.60;82.20
19000;DHT22;9633;50.980;13.850;2023-07-13T08:48:41;28.80;88.30
19000;DHT22;9633;50.980;13.850;2023-07-13T08:50:19;28.60;87.40
19000;DHT22;9633;50.980;13.850;2023-07-13T08:51:57;29.30;86.20
19000;DHT22;9633;50.980;13.850;2023-07-13T08:53:39;28.70;88.50
19000;DHT22;9633;50.980;13.850;2023-07-13T08:55:16;27.20;86.30
19000;DHT22;9633;50.980;13.850;2023-07-13T08:56:50;27.50;85.80
19000;DHT22;9633;50.980;13.850;2023-07-13T08:58:25;28.90;88.40
19000;DHT22;9633;50.980;13.850;2023-07-13T09:00:00;30.10;86.70
19000;DHT22;9633;50.980;13.850;2023-07-13T09:01:49;30.50;90.40
19000;DHT22;9633;50.980;13.850;2023-07-13T09:03:36;28.10;90.80
19000;DHT22;9633;50.980;13.850;2023-07-13T09:05:14;26.90;90.50
19000;DHT22;9633;50.980;13.850;2023-07-13T09:06:59;27.40;92.10
19000;DHT22;9633;50.980;13.850;2023-07-13T09:08:43;28.00;91.20
19000;DHT22;9633;50.980;13.850;2023-07-13T09:10:26;28.00;90.50
19000;DHT22;9633;50.980;13.850;2023-07-13T09:12:03;27.50;90.20
19000;DHT22;9633;50.980;13.850;2023-07-13T09:13:43;27.10;91.20
19000;DHT22;9633;50.980;13.850;2023-07-13T09:15:27;27.10;90.60
19000;DHT22;9633;50.980;13.850;2023-07-13T09:17:04;26.80;90.60
19000;DHT22;9633;50.980;13.850;2023-07-13T09:18:42;27.30;90.50
19000;DHT22;9633;50.980;13.850;2023-07-13T09:20:23;27.30;90.70
19000;DHT22;9633;50.980;13.850;2023-07-13T09:21:57;26.80;90.80
19000;DHT22;9633;50.980;13.850;2023-07-13T09:23:31;26.70;91.20
19000;DHT22;9633;50.980;13.850;2023-07-13T09:25:23;27.20;91.20
19000;DHT22;9633;50.980;13.850;2023-07-13T09:26:57;26.80;91.70
19000;DHT22;9633;50.980;13.850;2023-07-13T09:28:37;26.30;90.70
19000;DHT22;9633;50.980;13.850;2023-07-13T09:30:23;26.40;91.50
19000;DHT22;9633;50.980;13.850;2023-07-13T09:32:00;26.20;87.50
19000;DHT22;9633;50.980;13.850;2023-07-13T09:33:34;26.20;88.00
19000;DHT22;9633;50.980;13.850;2023-07-13T09:35:10;27.20;91.20
19000;DHT22;9633;50.980;13.850;2023-07-13T09:36:43;27.90;91.30
19000;DHT22;9633;50.980;13.850;2023-07-13T09:38:22;27.80;89.00
19000;DHT22;9633;50.980;13.850;2023-07-13T09:39:58;28.30;90.90
19000;DHT22;9633;50.980;13.850;2023-07-13T09:41:39;27.70;90.30
19000;DHT22;9633;50.980;13.850;2023-07-13T09:43:17;27.50;88.50
19000;DHT22;9633;50.980;13.850;2023-07-13T09:44:55;27.00;88.70
19000;DHT22;9633;50.980;13.850;2023-07-13T09:46:28;26.50;89.40
19000;DHT22;9633;50.980;13.850;2023-07-13T09:48:05;26.50;89.70
19000;DHT22;9633;50.980;13.850;2023-07-13T09:49:39;26.50;90.00
19000;DHT22;9633;50.980;13.850;2023-07-13T09:51:14;26.80;88.00
19000;DHT22;9633;50.980;13.850;2023-07-13T09:52:49;27.00;86.90
19000;DHT22;9633;50.980;13.850;2023-07-13T09:54:25;27.20;88.60
19000;DHT22;9633;50.980;13.850;2023-07-13T09:55:57;27.20;84.00